sensor_id;sensor_type;location;lat;lon;timestamp;pressure;altitude;pressure_sealevel;temperature
20058;BMP180;10189;49.546;7.906;2024-02-26T00:00:00;96222.00;;;9.10
20058;BMP180;10189;49.546;7.906;2024-02-26T00:02:27;96228.00;;;9.00
20058;BMP180;10189;49.546;7.906;2024-02-26T00:04:53;96219.00;;;9.00
20058;BMP180;10189;49.546;7.906;2024-02-26T00:07:19;96232.00;;;9.00
20058;BMP180;10189;49.546;7.906;2024-02-26T00:09:45;96220.00;;;9.10
20058;BMP180;10189;49.546;7.906;2024-02-26T00:12:11;96237.00;;;9.00
20058;BMP180;10189;49.546;7.906;2024-02-26T00:14:36;96239.00;;;8.80
20058;BMP180;10189;49.546;7.906;2024-02-26T00:17:02;96246.00;;;8.90
20058;BMP180;10189;49.546;7.906;2024-02-26T00:19:28;96244.00;;;8.90
20058;BMP180;10189;49.546;7.906;2024-02-26T00:21:54;96264.00;;;9.00
20058;BMP180;10189;49.546;7.906;2024-02-26T00:24:21;96245.00;;;8.90
20058;BMP180;10189;49.546;7.906;2024-02-26T00:26:47;96252.00;;;8.90
20058;BMP180;10189;49.546;7.906;2024-02-26T00:29:19;96256.00;;;8.90
20058;BMP180;10189;49.546;7.906;2024-02-26T00:31:45;96269.00;;;8.90
20058;BMP180;10189;49.546;7.906;2024-02-26T00:34:11;96255.00;;;8.80
20058;BMP180;10189;49.546;7.906;2024-02-26T00:36:37;96255.00;;;9.00
20058;BMP180;10189;49.546;7.906;2024-02-26T00:39:03;96253.00;;;9.00
20058;BMP180;10189;49.546;7.906;2024-02-26T00:41:30;96262.00;;;9.00
20058;BMP180;10189;49.546;7.906;2024-02-26T00:43:55;96262.00;;;8.80
20058;BMP180;10189;49.546;7.906;2024-02-26T00:46:21;96264.00;;;8.70
20058;BMP180;10189;49.546;7.906;2024-02-26T00:48:47;96256.00;;;8.90
20058;BMP180;10189;49.546;7.906;2024-02-26T00:51:13;96256.00;;;8.90
20058;BMP180;10189;49.546;7.906;2024-02-26T00:53:40;96259.00;;;8.80
20058;BMP180;10189;49.546;7.906;2024-02-26T00:56:06;96257.00;;;8.80
20058;BMP180;10189;49.546;7.906;2024-02-26T00:58:32;96275.00;;;8.70
20058;BMP180;10189;49.546;7.906;2024-02-26T01:00:58;96271.00;;;8.80
20058;BMP180;10189;49.546;7.906;2024-02-26T01:03:24;96262.00;;;8.80
20058;BMP180;10189;49.546;7.906;2024-02-26T01:05:50;96269.00;;;8.80
20058;BMP180;10189;49.546;7.906;2024-02-26T01:08:16;96269.00;;;8.80
20058;BMP180;10189;49.546;7.906;2024-02-26T01:10:42;96267.00;;;8.80
20058;BMP180;10189;49.546;7.906;2024-02-26T01:13:08;96262.00;;;8.80
20058;BMP180;10189;49.546;7.906;2024-02-26T01:15:34;96269.00;;;8.80
20058;BMP180;10189;49.546;7.906;2024-02-26T01:17:59;96269.00;;;8.80
20058;BMP180;10189;49.546;7.906;2024-02-26T01:20:25;96267.00;;;8.80
20058;BMP180;10189;49.546;7.906;2024-02-26T01:22:51;96264.00;;;8.70
20058;BMP180;10189;49.546;7.906;2024-02-26T01:25:17;96260.00;;;8.80
20058;BMP180;10189;49.546;7.906;2024-02-26T01:27:44;96264.00;;;8.80
20058;BMP180;10189;49.546;7.906;2024-02-26T01:30:10;96258.00;;;8.80
20058;BMP180;10189;49.546;7.906;2024-02-26T01:32:36;96258.00;;;8.80
20058;BMP180;10189;49.546;7.906;2024-02-26T01:35:03;96267.00;;;8.80
20058;BMP180;10189;49.546;7.906;2024-02-26T01:37:29;96273.00;;;8.80
20058;BMP180;10189;49.546;7.906;2024-02-26T01:39:58;96276.00;;;8.80
20058;BMP180;10189;49.546;7.906;2024-02-26T01:42:24;96275.00;;;8.80
20058;BMP180;10189;49.546;7.906;2024-02-26T01:44:50;96276.00;;;8.90
20058;BMP180;10189;49.546;7.906;2024-02-26T01:47:15;96266.00;;;8.90
20058;BMP180;10189;49.546;7.906;2024-02-26T01:49:42;96279.00;;;8.90
20058;BMP180;10189;49.546;7.906;2024-02-26T01:52:09;96268.00;;;8.80
20058;BMP180;10189;49.546;7.906;2024-02-26T01:54:38;96277.00;;;8.70
20058;BMP180;10189;49.546;7.906;2024-02-26T01:57:05;96274.00;;;8.90
20058;BMP180;10189;49.546;7.906;2024-02-26T01:59:34;96267.00;;;8.80
20058;BMP180;10189;49.546;7.906;2024-02-26T02:02:03;96277.00;;;8.80
20058;BMP180;10189;49.546;7.906;2024-02-26T02:04:35;96268.00;;;8.80
20058;BMP180;10189;49.546;7.906;2024-02-26T02:07:02;96259.00;;;8.80
20058;BMP180;10189;49.546;7.906;2024-02-26T02:09:28;96268.00;;;8.90
20058;BMP180;10189;49.546;7.906;2024-02-26T02:11:54;96262.00;;;8.80
20058;BMP180;10189;49.546;7.906;2024-02-26T02:14:21;96267.00;;;8.80
20058;BMP180;10189;49.546;7.906;2024-02-26T02:16:47;96264.00;;;8.70
20058;BMP180;10189;49.546;7.906;2024-02-26T02:19:14;96262.00;;;8.70
20058;BMP180;10189;49.546;7.906;2024-02-26T02:21:39;96265.00;;;8.70
20058;BMP180;10189;49.546;7.906;2024-02-26T02:24:05;96266.00;;;8.70
20058;BMP180;10189;49.546;7.906;2024-02-26T02:26:31;96265.00;;;8.70
20058;BMP180;10189;49.546;7.906;2024-02-26T02:28:59;96263.00;;;8.70
20058;BMP180;10189;49.546;7.906;2024-02-26T02:31:26;96263.00;;;8.70
20058;BMP180;10189;49.546;7.906;2024-02-26T02:33:52;96278.00;;;8.70
20058;BMP180;10189;49.546;7.906;2024-02-26T02:36:18;96270.00;;;8.70
20058;BMP180;10189;49.546;7.906;2024-02-26T02:38:51;96270.00;;;8.60
20058;BMP180;10189;49.546;7.906;2024-02-26T02:41:18;96277.00;;;8.60
20058;BMP180;10189;49.546;7.906;2024-02-26T02:43:45;96271.00;;;8.60
20058;BMP180;10189;49.546;7.906;2024-02-26T02:46:11;96283.00;;;8.70
20058;BMP180;10189;49.546;7.906;2024-02-26T02:48:38;96267.00;;;8.70
20058;BMP180;10189;49.546;7.906;2024-02-26T02:51:04;96279.00;;;8.60
20058;BMP180;10189;49.546;7.906;2024-02-26T02:53:30;96276.00;;;8.60
20058;BMP180;10189;49.546;7.906;2024-02-26T02:55:56;96268.00;;;8.70
20058;BMP180;10189;49.546;7.906;2024-02-26T02:58:22;96269.00;;;8.70
20058;BMP180;10189;49.546;7.906;2024-02-26T03:00:48;96274.00;;;8.60
20058;BMP180;10189;49.546;7.906;2024-02-26T03:03:13;96266.00;;;8.60
20058;BMP180;10189;49.546;7.906;2024-02-26T03:05:39;96272.00;;;8.60
20058;BMP180;10189;49.546;7.906;2024-02-26T03:08:05;96269.00;;;8.60
20058;BMP180;10189;49.546;7.906;2024-02-26T03:10:31;96269.00;;;8.60
20058;BMP180;10189;49.546;7.906;2024-02-26T03:12:57;96269.00;;;8.50
20058;BMP180;10189;49.546;7.906;2024-02-26T03:15:23;96266.00;;;8.50
20058;BMP180;10189;49.546;7.906;2024-02-26T03:17:49;96270.00;;;8.50
20058;BMP180;10189;49.546;7.906;2024-02-26T03:20:15;96268.00;;;8.50
20058;BMP180;10189;49.546;7.906;2024-02-26T03:22:40;96251.00;;;8.50
20058;BMP180;10189;49.546;7.906;2024-02-26T03:25:07;96264.00;;;8.50
20058;BMP180;10189;49.546;7.906;2024-02-26T03:27:33;96265.00;;;8.40
20058;BMP180;10189;49.546;7.906;2024-02-26T03:29:59;96256.00;;;8.40
20058;BMP180;10189;49.546;7.906;2024-02-26T03:32:25;96269.00;;;8.40
20058;BMP180;10189;49.546;7.906;2024-02-26T03:34:51;96266.00;;;8.50
20058;BMP180;10189;49.546;7.906;2024-02-26T03:37:20;96263.00;;;8.50
20058;BMP180;10189;49.546;7.906;2024-02-26T03:39:45;96256.00;;;8.50
20058;BMP180;10189;49.546;7.906;2024-02-26T03:42:11;96253.00;;;8.50
20058;BMP180;10189;49.546;7.906;2024-02-26T03:44:37;96253.00;;;8.50
20058;BMP180;10189;49.546;7.906;2024-02-26T03:47:03;96244.00;;;8.50
20058;BMP180;10189;49.546;7.906;2024-02-26T03:49:29;96252.00;;;8.50
20058;BMP180;10189;49.546;7.906;2024-02-26T03:51:55;96247.00;;;8.50
20058;BMP180;10189;49.546;7.906;2024-02-26T03:54:20;96245.00;;;8.40
20058;BMP180;10189;49.546;7.906;2024-02-26T03:56:46;96250.00;;;8.40
20058;BMP180;10189;49.546;7.906;2024-02-26T03:59:12;96251.00;;;8.50
20058;BMP180;10189;49.546;7.906;2024-02-26T04:01:38;96245.00;;;8.40
20058;BMP180;10189;49.546;7.906;2024-02-26T04:04:04;96240.00;;;8.40
20058;BMP180;10189;49.546;7.906;2024-02-26T04:06:30;96243.00;;;8.40
20058;BMP180;10189;49.546;7.906;2024-02-26T04:08:56;96245.00;;;8.40
20058;BMP180;10189;49.546;7.906;2024-02-26T04:11:22;96239.00;;;8.30
20058;BMP180;10189;49.546;7.906;2024-02-26T04:13:47;96248.00;;;8.30
20058;BMP180;10189;49.546;7.906;2024-02-26T04:16:16;96237.00;;;8.30
20058;BMP180;10189;49.546;7.906;2024-02-26T04:18:42;96241.00;;;8.30
20058;BMP180;10189;49.546;7.906;2024-02-26T04:21:08;96244.00;;;8.30
20058;BMP180;10189;49.546;7.906;2024-02-26T04:23:34;96240.00;;;8.20
20058;BMP180;10189;49.546;7.906;2024-02-26T04:26:00;96248.00;;;8.30
20058;BMP180;10189;49.546;7.906;2024-02-26T04:28:26;96248.00;;;8.40
20058;BMP180;10189;49.546;7.906;2024-02-26T04:30:55;96246.00;;;8.30
20058;BMP180;10189;49.546;7.906;2024-02-26T04:33:21;96239.00;;;8.40
20058;BMP180;10189;49.546;7.906;2024-02-26T04:35:47;96244.00;;;8.40
20058;BMP180;10189;49.546;7.906;2024-02-26T04:38:13;96235.00;;;8.40
20058;BMP180;10189;49.546;7.906;2024-02-26T04:40:39;96230.00;;;8.40
20058;BMP180;10189;49.546;7.906;2024-02-26T04:43:05;96232.00;;;8.30
20058;BMP180;10189;49.546;7.906;2024-02-26T04:45:30;96231.00;;;8.40
20058;BMP180;10189;49.546;7.906;2024-02-26T04:47:56;96242.00;;;8.40
20058;BMP180;10189;49.546;7.906;2024-02-26T04:50:22;96244.00;;;8.30
20058;BMP180;10189;49.546;7.906;2024-02-26T04:52:48;96242.00;;;8.30
20058;BMP180;10189;49.546;7.906;2024-02-26T04:55:13;96243.00;;;8.30
20058;BMP180;10189;49.546;7.906;2024-02-26T04:57:39;96246.00;;;8.30
20058;BMP180;10189;49.546;7.906;2024-02-26T05:00:06;96247.00;;;8.30
20058;BMP180;10189;49.546;7.906;2024-02-26T05:02:32;96237.00;;;8.40
20058;BMP180;10189;49.546;7.906;2024-02-26T05:04:59;96242.00;;;8.40
20058;BMP180;10189;49.546;7.906;2024-02-26T05:07:25;96238.00;;;8.30
20058;BMP180;10189;49.546;7.906;2024-02-26T05:09:50;96240.00;;;8.30
20058;BMP180;10189;49.546;7.906;2024-02-26T05:12:16;96245.00;;;8.40
20058;BMP180;10189;49.546;7.906;2024-02-26T05:14:42;96245.00;;;8.50
20058;BMP180;10189;49.546;7.906;2024-02-26T05:17:08;96248.00;;;8.50
20058;BMP180;10189;49.546;7.906;2024-02-26T05:19:34;96247.00;;;8.50
20058;BMP180;10189;49.546;7.906;2024-02-26T05:22:00;96249.00;;;8.40
20058;BMP180;10189;49.546;7.906;2024-02-26T05:24:26;96251.00;;;8.50
20058;BMP180;10189;49.546;7.906;2024-02-26T05:26:53;96260.00;;;8.40
20058;BMP180;10189;49.546;7.906;2024-02-26T05:29:20;96255.00;;;8.40
20058;BMP180;10189;49.546;7.906;2024-02-26T05:31:46;96252.00;;;8.40
20058;BMP180;10189;49.546;7.906;2024-02-26T05:34:11;96253.00;;;8.40
20058;BMP180;10189;49.546;7.906;2024-02-26T05:36:37;96247.00;;;8.50
20058;BMP180;10189;49.546;7.906;2024-02-26T05:39:04;96254.00;;;8.40
20058;BMP180;10189;49.546;7.906;2024-02-26T05:41:30;96253.00;;;8.50
20058;BMP180;10189;49.546;7.906;2024-02-26T05:43:56;96271.00;;;8.40
20058;BMP180;10189;49.546;7.906;2024-02-26T05:46:22;96260.00;;;8.50
20058;BMP180;10189;49.546;7.906;2024-02-26T05:48:51;96261.00;;;8.50
20058;BMP180;10189;49.546;7.906;2024-02-26T05:51:18;96270.00;;;8.60
20058;BMP180;10189;49.546;7.906;2024-02-26T05:53:44;96277.00;;;8.50
20058;BMP180;10189;49.546;7.906;2024-02-26T05:56:10;96272.00;;;8.50
20058;BMP180;10189;49.546;7.906;2024-02-26T05:58:36;96282.00;;;8.50
20058;BMP180;10189;49.546;7.906;2024-02-26T06:01:02;96280.00;;;8.50
20058;BMP180;10189;49.546;7.906;2024-02-26T06:03:29;96284.00;;;8.50
20058;BMP180;10189;49.546;7.906;2024-02-26T06:05:55;96281.00;;;8.60
20058;BMP180;10189;49.546;7.906;2024-02-26T06:08:21;96288.00;;;8.60
20058;BMP180;10189;49.546;7.906;2024-02-26T06:10:46;96291.00;;;8.50
20058;BMP180;10189;49.546;7.906;2024-02-26T06:13:12;96301.00;;;8.70
20058;BMP180;10189;49.546;7.906;2024-02-26T06:15:38;96305.00;;;8.70
20058;BMP180;10189;49.546;7.906;2024-02-26T06:18:04;96307.00;;;8.50
20058;BMP180;10189;49.546;7.906;2024-02-26T06:20:30;96313.00;;;8.70
20058;BMP180;10189;49.546;7.906;2024-02-26T06:22:56;96307.00;;;8.60
20058;BMP180;10189;49.546;7.906;2024-02-26T06:25:22;96318.00;;;8.60
20058;BMP180;10189;49.546;7.906;2024-02-26T06:27:47;96322.00;;;8.70
20058;BMP180;10189;49.546;7.906;2024-02-26T06:30:13;96320.00;;;8.60
20058;BMP180;10189;49.546;7.906;2024-02-26T06:32:40;96329.00;;;8.70
20058;BMP180;10189;49.546;7.906;2024-02-26T06:35:06;96327.00;;;8.50
20058;BMP180;10189;49.546;7.906;2024-02-26T06:37:35;96337.00;;;8.60
20058;BMP180;10189;49.546;7.906;2024-02-26T06:40:01;96335.00;;;8.50
20058;BMP180;10189;49.546;7.906;2024-02-26T06:42:32;96333.00;;;8.60
20058;BMP180;10189;49.546;7.906;2024-02-26T06:44:58;96340.00;;;8.60
20058;BMP180;10189;49.546;7.906;2024-02-26T06:47:24;96345.00;;;8.70
20058;BMP180;10189;49.546;7.906;2024-02-26T06:49:51;96345.00;;;8.60
20058;BMP180;10189;49.546;7.906;2024-02-26T06:52:17;96358.00;;;8.70
20058;BMP180;10189;49.546;7.906;2024-02-26T06:54:43;96353.00;;;8.70
20058;BMP180;10189;49.546;7.906;2024-02-26T06:57:10;96344.00;;;8.80
20058;BMP180;10189;49.546;7.906;2024-02-26T06:59:36;96343.00;;;8.70
20058;BMP180;10189;49.546;7.906;2024-02-26T07:02:02;96353.00;;;8.70
20058;BMP180;10189;49.546;7.906;2024-02-26T07:04:28;96347.00;;;8.70
20058;BMP180;10189;49.546;7.906;2024-02-26T07:06:54;96348.00;;;8.70
20058;BMP180;10189;49.546;7.906;2024-02-26T07:09:20;96355.00;;;8.70
20058;BMP180;10189;49.546;7.906;2024-02-26T07:11:46;96348.00;;;8.60
20058;BMP180;10189;49.546;7.906;2024-02-26T07:14:12;96351.00;;;8.60
20058;BMP180;10189;49.546;7.906;2024-02-26T07:16:38;96359.00;;;8.60
20058;BMP180;10189;49.546;7.906;2024-02-26T07:19:04;96354.00;;;8.70
20058;BMP180;10189;49.546;7.906;2024-02-26T07:21:30;96366.00;;;8.70
20058;BMP180;10189;49.546;7.906;2024-02-26T07:23:56;96356.00;;;8.70
20058;BMP180;10189;49.546;7.906;2024-02-26T07:26:23;96359.00;;;8.60
20058;BMP180;10189;49.546;7.906;2024-02-26T07:28:50;96366.00;;;8.70
20058;BMP180;10189;49.546;7.906;2024-02-26T07:31:17;96361.00;;;8.70
20058;BMP180;10189;49.546;7.906;2024-02-26T07:33:43;96373.00;;;8.80
20058;BMP180;10189;49.546;7.906;2024-02-26T07:36:09;96365.00;;;8.70
20058;BMP180;10189;49.546;7.906;2024-02-26T07:38:35;96379.00;;;8.90
20058;BMP180;10189;49.546;7.906;2024-02-26T07:41:03;96384.00;;;8.90
20058;BMP180;10189;49.546;7.906;2024-02-26T07:43:29;96386.00;;;9.00
20058;BMP180;10189;49.546;7.906;2024-02-26T07:45:55;96377.00;;;9.10
20058;BMP180;10189;49.546;7.906;2024-02-26T07:48:23;96369.00;;;9.10
20058;BMP180;10189;49.546;7.906;2024-02-26T07:50:49;96378.00;;;9.20
20058;BMP180;10189;49.546;7.906;2024-02-26T07:53:15;96369.00;;;9.20
20058;BMP180;10189;49.546;7.906;2024-02-26T07:55:41;96373.00;;;9.20
20058;BMP180;10189;49.546;7.906;2024-02-26T07:58:07;96377.00;;;9.30
20058;BMP180;10189;49.546;7.906;2024-02-26T08:00:33;96372.00;;;9.30
20058;BMP180;10189;49.546;7.906;2024-02-26T08:02:59;96385.00;;;9.30
20058;BMP180;10189;49.546;7.906;2024-02-26T08:05:25;96376.00;;;9.30
20058;BMP180;10189;49.546;7.906;2024-02-26T08:07:51;96386.00;;;9.40
20058;BMP180;10189;49.546;7.906;2024-02-26T08:10:17;96389.00;;;9.40
20058;BMP180;10189;49.546;7.906;2024-02-26T08:12:42;96394.00;;;9.40
20058;BMP180;10189;49.546;7.906;2024-02-26T08:15:08;96393.00;;;9.50
20058;BMP180;10189;49.546;7.906;2024-02-26T08:17:35;96396.00;;;9.40
20058;BMP180;10189;49.546;7.906;2024-02-26T08:20:02;96401.00;;;9.50
20058;BMP180;10189;49.546;7.906;2024-02-26T08:22:28;96397.00;;;9.50
20058;BMP180;10189;49.546;7.906;2024-02-26T08:24:54;96404.00;;;9.50
20058;BMP180;10189;49.546;7.906;2024-02-26T08:27:19;96394.00;;;9.40
20058;BMP180;10189;49.546;7.906;2024-02-26T08:29:45;96395.00;;;9.60
20058;BMP180;10189;49.546;7.906;2024-02-26T08:32:11;96392.00;;;9.60
20058;BMP180;10189;49.546;7.906;2024-02-26T08:34:37;96392.00;;;9.90
20058;BMP180;10189;49.546;7.906;2024-02-26T08:37:03;96389.00;;;9.90
20058;BMP180;10189;49.546;7.906;2024-02-26T08:39:29;96376.00;;;9.90
20058;BMP180;10189;49.546;7.906;2024-02-26T08:41:55;96377.00;;;10.10
20058;BMP180;10189;49.546;7.906;2024-02-26T08:44:21;96377.00;;;10.20
20058;BMP180;10189;49.546;7.906;2024-02-26T08:46:46;96379.00;;;10.00
20058;BMP180;10189;49.546;7.906;2024-02-26T08:49:12;96388.00;;;10.00
20058;BMP180;10189;49.546;7.906;2024-02-26T08:51:42;96405.00;;;10.00
20058;BMP180;10189;49.546;7.906;2024-02-26T08:54:09;96399.00;;;9.80
20058;BMP180;10189;49.546;7.906;2024-02-26T08:56:35;96395.00;;;9.90
20058;BMP180;10189;49.546;7.906;2024-02-26T08:59:01;96404.00;;;9.90
20058;BMP180;10189;49.546;7.906;2024-02-26T09:01:31;96408.00;;;10.10
20058;BMP180;10189;49.546;7.906;2024-02-26T09:03:57;96406.00;;;10.10
20058;BMP180;10189;49.546;7.906;2024-02-26T09:06:23;96403.00;;;10.30
20058;BMP180;10189;49.546;7.906;2024-02-26T09:08:49;96403.00;;;10.30
20058;BMP180;10189;49.546;7.906;2024-02-26T09:11:16;96404.00;;;10.50
20058;BMP180;10189;49.546;7.906;2024-02-26T09:13:42;96401.00;;;10.70
20058;BMP180;10189;49.546;7.906;2024-02-26T09:16:08;96403.00;;;10.90
20058;BMP180;10189;49.546;7.906;2024-02-26T09:18:34;96395.00;;;11.00
20058;BMP180;10189;49.546;7.906;2024-02-26T09:20:59;96400.00;;;11.10
20058;BMP180;10189;49.546;7.906;2024-02-26T09:23:25;96394.00;;;11.10
20058;BMP180;10189;49.546;7.906;2024-02-26T09:25:51;96400.00;;;11.00
20058;BMP180;10189;49.546;7.906;2024-02-26T09:28:17;96401.00;;;11.30
20058;BMP180;10189;49.546;7.906;2024-02-26T09:30:44;96404.00;;;11.60
20058;BMP180;10189;49.546;7.906;2024-02-26T09:33:10;96408.00;;;11.20
20058;BMP180;10189;49.546;7.906;2024-02-26T09:35:37;96414.00;;;11.00
20058;BMP180;10189;49.546;7.906;2024-02-26T09:38:03;96416.00;;;11.10
20058;BMP180;10189;49.546;7.906;2024-02-26T09:40:29;96415.00;;;11.30
20058;BMP180;10189;49.546;7.906;2024-02-26T09:43:00;96427.00;;;11.30
20058;BMP180;10189;49.546;7.906;2024-02-26T09:45:28;96421.00;;;11.40
20058;BMP180;10189;49.546;7.906;2024-02-26T09:47:56;96433.00;;;11.50
20058;BMP180;10189;49.546;7.906;2024-02-26T09:50:22;96428.00;;;11.40
20058;BMP180;10189;49.546;7.906;2024-02-26T09:52:49;96424.00;;;11.90
20058;BMP180;10189;49.546;7.906;2024-02-26T09:55:16;96418.00;;;11.80
20058;BMP180;10189;49.546;7.906;2024-02-26T09:57:46;96435.00;;;11.90
20058;BMP180;10189;49.546;7.906;2024-02-26T10:00:18;96430.00;;;11.90
20058;BMP180;10189;49.546;7.906;2024-02-26T10:02:47;96432.00;;;11.60
20058;BMP180;10189;49.546;7.906;2024-02-26T10:05:17;96428.00;;;11.40
20058;BMP180;10189;49.546;7.906;2024-02-26T10:07:46;96444.00;;;11.50
20058;BMP180;10189;49.546;7.906;2024-02-26T10:10:17;96443.00;;;11.60
20058;BMP180;10189;49.546;7.906;2024-02-26T10:12:43;96448.00;;;11.20
20058;BMP180;10189;49.546;7.906;2024-02-26T10:15:09;96438.00;;;11.20
20058;BMP180;10189;49.546;7.906;2024-02-26T10:17:36;96440.00;;;11.00
20058;BMP180;10189;49.546;7.906;2024-02-26T10:20:17;96449.00;;;11.00
20058;BMP180;10189;49.546;7.906;2024-02-26T10:22:45;96448.00;;;11.20
20058;BMP180;10189;49.546;7.906;2024-02-26T10:25:11;96449.00;;;11.20
20058;BMP180;10189;49.546;7.906;2024-02-26T10:27:37;96455.00;;;11.20
20058;BMP180;10189;49.546;7.906;2024-02-26T10:30:22;96446.00;;;11.40
20058;BMP180;10189;49.546;7.906;2024-02-26T10:32:49;96460.00;;;11.40
20058;BMP180;10189;49.546;7.906;2024-02-26T10:35:19;96459.00;;;11.50
20058;BMP180;10189;49.546;7.906;2024-02-26T10:37:49;96471.00;;;11.50
20058;BMP180;10189;49.546;7.906;2024-02-26T10:40:16;96471.00;;;11.50
20058;BMP180;10189;49.546;7.906;2024-02-26T10:42:43;96474.00;;;11.80
20058;BMP180;10189;49.546;7.906;2024-02-26T10:45:10;96486.00;;;11.80
20058;BMP180;10189;49.546;7.906;2024-02-26T10:47:36;96473.00;;;11.80
20058;BMP180;10189;49.546;7.906;2024-02-26T10:50:05;96473.00;;;11.90
20058;BMP180;10189;49.546;7.906;2024-02-26T10:52:36;96475.00;;;12.10
20058;BMP180;10189;49.546;7.906;2024-02-26T10:55:05;96488.00;;;12.10
20058;BMP180;10189;49.546;7.906;2024-02-26T10:57:40;96476.00;;;11.90
20058;BMP180;10189;49.546;7.906;2024-02-26T11:00:07;96486.00;;;11.80
20058;BMP180;10189;49.546;7.906;2024-02-26T11:02:36;96489.00;;;11.40
20058;BMP180;10189;49.546;7.906;2024-02-26T11:05:07;96496.00;;;11.80
20058;BMP180;10189;49.546;7.906;2024-02-26T11:07:36;96490.00;;;11.90
20058;BMP180;10189;49.546;7.906;2024-02-26T11:10:04;96496.00;;;12.00
20058;BMP180;10189;49.546;7.906;2024-02-26T11:12:32;96479.00;;;11.90
20058;BMP180;10189;49.546;7.906;2024-02-26T11:15:01;96484.00;;;11.90
20058;BMP180;10189;49.546;7.906;2024-02-26T11:17:29;96495.00;;;11.80
20058;BMP180;10189;49.546;7.906;2024-02-26T11:19:58;96488.00;;;11.80
20058;BMP180;10189;49.546;7.906;2024-02-26T11:22:25;96491.00;;;11.90
20058;BMP180;10189;49.546;7.906;2024-02-26T11:24:54;96487.00;;;12.00
20058;BMP180;10189;49.546;7.906;2024-02-26T11:27:39;96494.00;;;11.90
20058;BMP180;10189;49.546;7.906;2024-02-26T11:30:10;96485.00;;;11.70
20058;BMP180;10189;49.546;7.906;2024-02-26T11:32:38;96498.00;;;11.90
20058;BMP180;10189;49.546;7.906;2024-02-26T11:35:05;96499.00;;;12.10
20058;BMP180;10189;49.546;7.906;2024-02-26T11:37:33;96503.00;;;12.20
20058;BMP180;10189;49.546;7.906;2024-02-26T11:39:59;96503.00;;;12.20
20058;BMP180;10189;49.546;7.906;2024-02-26T11:42:29;96499.00;;;12.40
20058;BMP180;10189;49.546;7.906;2024-02-26T11:44:55;96491.00;;;12.50
20058;BMP180;10189;49.546;7.906;2024-02-26T11:47:27;96474.00;;;12.60
20058;BMP180;10189;49.546;7.906;2024-02-26T11:49:53;96479.00;;;13.00
20058;BMP180;10189;49.546;7.906;2024-02-26T11:52:19;96486.00;;;13.10
20058;BMP180;10189;49.546;7.906;2024-02-26T11:54:48;96476.00;;;13.10
20058;BMP180;10189;49.546;7.906;2024-02-26T11:57:40;96485.00;;;13.10
20058;BMP180;10189;49.546;7.906;2024-02-26T12:02:53;96500.00;;;12.60
20058;BMP180;10189;49.546;7.906;2024-02-26T12:05:32;96504.00;;;12.70
20058;BMP180;10189;49.546;7.906;2024-02-26T12:08:07;96502.00;;;12.70
20058;BMP180;10189;49.546;7.906;2024-02-26T12:10:37;96506.00;;;12.90
20058;BMP180;10189;49.546;7.906;2024-02-26T12:13:11;96512.00;;;13.00
20058;BMP180;10189;49.546;7.906;2024-02-26T12:15:43;96504.00;;;12.80
20058;BMP180;10189;49.546;7.906;2024-02-26T12:18:16;96512.00;;;12.80
20058;BMP180;10189;49.546;7.906;2024-02-26T12:20:43;96521.00;;;12.70
20058;BMP180;10189;49.546;7.906;2024-02-26T12:23:16;96517.00;;;12.70
20058;BMP180;10189;49.546;7.906;2024-02-26T12:25:45;96505.00;;;12.90
20058;BMP180;10189;49.546;7.906;2024-02-26T12:28:14;96499.00;;;12.90
20058;BMP180;10189;49.546;7.906;2024-02-26T12:30:40;96505.00;;;13.10
20058;BMP180;10189;49.546;7.906;2024-02-26T12:33:07;96508.00;;;13.20
20058;BMP180;10189;49.546;7.906;2024-02-26T12:35:35;96504.00;;;13.30
20058;BMP180;10189;49.546;7.906;2024-02-26T12:38:02;96512.00;;;13.30
20058;BMP180;10189;49.546;7.906;2024-02-26T12:40:30;96510.00;;;13.50
20058;BMP180;10189;49.546;7.906;2024-02-26T12:42:56;96505.00;;;13.40
20058;BMP180;10189;49.546;7.906;2024-02-26T12:45:22;96521.00;;;13.30
20058;BMP180;10189;49.546;7.906;2024-02-26T12:47:48;96528.00;;;13.30
20058;BMP180;10189;49.546;7.906;2024-02-26T12:50:17;96513.00;;;13.40
20058;BMP180;10189;49.546;7.906;2024-02-26T12:52:47;96521.00;;;13.30
20058;BMP180;10189;49.546;7.906;2024-02-26T12:55:18;96516.00;;;13.40
20058;BMP180;10189;49.546;7.906;2024-02-26T12:57:46;96509.00;;;13.50
20058;BMP180;10189;49.546;7.906;2024-02-26T13:00:25;96514.00;;;13.50
20058;BMP180;10189;49.546;7.906;2024-02-26T13:02:53;96530.00;;;13.40
20058;BMP180;10189;49.546;7.906;2024-02-26T13:05:22;96537.00;;;13.40
20058;BMP180;10189;49.546;7.906;2024-02-26T13:07:48;96546.00;;;13.30
20058;BMP180;10189;49.546;7.906;2024-02-26T13:10:20;96542.00;;;13.50
20058;BMP180;10189;49.546;7.906;2024-02-26T13:12:54;96542.00;;;13.50
20058;BMP180;10189;49.546;7.906;2024-02-26T13:15:22;96540.00;;;13.40
20058;BMP180;10189;49.546;7.906;2024-02-26T13:17:49;96544.00;;;13.50
20058;BMP180;10189;49.546;7.906;2024-02-26T13:20:29;96555.00;;;13.40
20058;BMP180;10189;49.546;7.906;2024-02-26T13:23:02;96560.00;;;13.40
20058;BMP180;10189;49.546;7.906;2024-02-26T13:25:28;96564.00;;;13.30
20058;BMP180;10189;49.546;7.906;2024-02-26T13:28:15;96565.00;;;13.20
20058;BMP180;10189;49.546;7.906;2024-02-26T13:30:42;96565.00;;;13.40
20058;BMP180;10189;49.546;7.906;2024-02-26T13:33:15;96575.00;;;13.40
20058;BMP180;10189;49.546;7.906;2024-02-26T13:35:41;96574.00;;;13.30
20058;BMP180;10189;49.546;7.906;2024-02-26T13:38:07;96572.00;;;13.00
20058;BMP180;10189;49.546;7.906;2024-02-26T13:40:34;96567.00;;;13.30
20058;BMP180;10189;49.546;7.906;2024-02-26T13:43:01;96585.00;;;13.50
20058;BMP180;10189;49.546;7.906;2024-02-26T13:45:27;96574.00;;;13.50
20058;BMP180;10189;49.546;7.906;2024-02-26T13:48:06;96582.00;;;13.30
20058;BMP180;10189;49.546;7.906;2024-02-26T13:50:32;96572.00;;;13.60
20058;BMP180;10189;49.546;7.906;2024-02-26T13:52:59;96587.00;;;13.30
20058;BMP180;10189;49.546;7.906;2024-02-26T13:55:28;96577.00;;;13.20
20058;BMP180;10189;49.546;7.906;2024-02-26T13:57:56;96570.00;;;13.20
20058;BMP180;10189;49.546;7.906;2024-02-26T14:00:23;96580.00;;;13.30
20058;BMP180;10189;49.546;7.906;2024-02-26T14:02:50;96574.00;;;13.30
20058;BMP180;10189;49.546;7.906;2024-02-26T14:05:17;96589.00;;;13.40
20058;BMP180;10189;49.546;7.906;2024-02-26T14:07:43;96591.00;;;13.00
20058;BMP180;10189;49.546;7.906;2024-02-26T14:10:11;96583.00;;;13.10
20058;BMP180;10189;49.546;7.906;2024-02-26T14:12:38;96600.00;;;13.10
20058;BMP180;10189;49.546;7.906;2024-02-26T14:15:09;96588.00;;;13.10
20058;BMP180;10189;49.546;7.906;2024-02-26T14:17:35;96597.00;;;13.10